Kilkeel, United Kingdom
Current Conditions -  °F | °C
As of 9:50 PM on Thursday 27 Nov 2014 (Local Time) from EGAC Reporting Station
Scattered Clouds Scattered Clouds  
Wind Chill: 41°   Ceiling: Unl
Heat Index: 45°   Visibility: 6mi
Dew Point: 41°   Wind: 7mph
Humidity: 87%   Direction: 100°E
Pressure: 29.53"   Gusts: NA
Location:  54.06°N, 6°W
Report Text: EGAC 272150Z 10006KT 9999 FEW024 SCT031 07/05 Q1000
Loading
Personal Weather Stations






























Interactive Weather Map New forecast layout! Learn more

10-Day Weather Forecast

Advertisements
Track Severe Weather on mobile